Time;durP1;ratioP1;P1;durP2;ratioP2;P2;SDS_P1;SDS_P2;PMS_P1;PMS_P2;Temp;Humidity;BMP_temperature;BMP_pressure;BME280_temperature;BME280_humidity;BME280_pressure;Samples;Min_cycle;Max_cycle;Signal;HPM_P1;HPM_P2
2022/03/13 00:00:17;;;;;;;30.20;16.92;;;4.30;75.40;;;;;;5082146;28;20406;-57
2022/03/13 00:02:45;;;;;;;31.35;15.57;;;4.20;76.20;;;;;;5080425;28;20401;-58
2022/03/13 00:05:14;;;;;;;29.02;16.45;;;4.10;76.50;;;;;;5065995;28;20409;-57
2022/03/13 00:07:41;;;;;;;27.70;14.98;;;4.10;75.50;;;;;;5085189;28;20420;-57
2022/03/13 00:10:07;;;;;;;28.33;15.77;;;4.20;73.70;;;;;;5083135;28;20385;-57
2022/03/13 00:12:34;;;;;;;26.52;14.45;;;4.40;71.90;;;;;;5082786;28;20399;-57
2022/03/13 00:15:12;;;;;;;28.42;15.20;;;4.40;70.80;;;;;;5078512;28;20596;-57
2022/03/13 00:17:38;;;;;;;27.10;14.70;;;4.50;70.20;;;;;;5060662;28;20417;-58
2022/03/13 00:20:05;;;;;;;28.05;14.10;;;4.50;69.70;;;;;;5075807;28;20414;-57
2022/03/13 00:22:33;;;;;;;28.45;15.52;;;4.60;69.50;;;;;;5081995;28;20414;-57
2022/03/13 00:25:00;;;;;;;26.53;15.30;;;4.50;70.60;;;;;;5082180;28;20394;-57
2022/03/13 00:27:31;;;;;;;29.40;15.63;;;4.40;70.60;;;;;;5077213;28;20472;-58
2022/03/13 00:30:00;;;;;;;29.75;15.23;;;4.40;70.60;;;;;;5083515;28;20494;-58
2022/03/13 00:32:26;;;;;;;26.23;14.82;;;4.40;70.60;;;;;;5073712;28;20407;-58
2022/03/13 00:34:51;;;;;;;29.75;15.85;;;4.40;71.00;;;;;;5074944;28;20400;-57
2022/03/13 00:37:17;;;;;;;29.48;15.63;;;4.40;71.00;;;;;;5078702;28;20460;-57
2022/03/13 00:39:44;;;;;;;29.30;15.13;;;4.50;70.90;;;;;;5059185;28;20392;-57
2022/03/13 00:42:12;;;;;;;27.67;14.82;;;4.60;70.70;;;;;;5077825;28;20967;-57
2022/03/13 00:44:38;;;;;;;30.30;16.23;;;4.70;70.20;;;;;;5058890;28;20490;-56
2022/03/13 00:47:05;;;;;;;28.42;16.35;;;4.80;69.70;;;;;;5081781;28;20472;-55
2022/03/13 00:49:32;;;;;;;30.30;16.33;;;4.80;69.50;;;;;;5075706;28;20498;-55
2022/03/13 00:52:00;;;;;;;31.52;16.85;;;4.90;69.50;;;;;;5078933;28;20482;-55
2022/03/13 00:54:26;;;;;;;30.80;16.33;;;4.90;69.30;;;;;;5073108;28;20391;-55
2022/03/13 00:56:53;;;;;;;33.37;17.00;;;4.90;69.30;;;;;;5081531;28;20991;-56
2022/03/13 00:59:20;;;;;;;30.77;17.10;;;4.90;69.30;;;;;;5080115;28;20386;-56
2022/03/13 01:01:46;;;;;;;31.93;17.20;;;4.90;69.00;;;;;;5077565;28;20396;-56
2022/03/13 01:04:12;;;;;;;32.00;16.83;;;4.80;68.70;;;;;;5080128;28;20384;-56
2022/03/13 01:06:38;;;;;;;28.17;16.08;;;4.80;69.20;;;;;;5080414;28;20409;-56
2022/03/13 01:09:03;;;;;;;30.33;16.75;;;5.70;70.30;;;;;;5080264;28;20457;-55
2022/03/13 01:11:29;;;;;;;30.77;16.70;;;4.70;69.80;;;;;;5064040;28;20385;-55
2022/03/13 01:13:55;;;;;;;32.93;17.40;;;4.60;69.90;;;;;;5078507;28;20453;-56
2022/03/13 01:16:27;;;;;;;31.40;16.45;;;4.90;71.50;;;;;;5080931;28;20470;-56
2022/03/13 01:18:58;;;;;;;32.05;17.92;;;4.40;71.90;;;;;;5078465;28;20776;-55
2022/03/13 01:21:25;;;;;;;32.13;18.35;;;3.70;71.70;;;;;;5079439;28;20380;-56
2022/03/13 01:24:00;;;;;;;34.42;18.23;;;5.30;73.50;;;;;;5078842;28;20404;-55
2022/03/13 01:26:25;;;;;;;35.07;17.80;;;4.50;72.40;;;;;;5084287;28;20422;-55
2022/03/13 01:28:57;;;;;;;31.83;17.50;;;4.50;71.90;;;;;;5080712;28;20580;-57
2022/03/13 01:31:28;;;;;;;30.43;15.70;;;4.50;71.70;;;;;;5082406;28;20493;-56
2022/03/13 01:33:56;;;;;;;32.50;17.20;;;4.40;71.10;;;;;;5078026;28;20389;-56
2022/03/13 01:36:22;;;;;;;31.38;16.73;;;4.40;70.80;;;;;;5080053;28;20470;-56
2022/03/13 01:38:48;;;;;;;34.70;17.77;;;6.50;73.40;;;;;;5078639;28;20449;-56
2022/03/13 01:41:13;;;;;;;31.13;16.90;;;4.40;71.00;;;;;;5081926;28;20375;-56
2022/03/13 01:43:39;;;;;;;34.83;16.58;;;4.80;71.70;;;;;;5080904;28;20435;-56
2022/03/13 01:46:05;;;;;;;33.07;17.47;;;4.30;71.70;;;;;;5079678;28;20887;-56
2022/03/13 01:48:38;;;;;;;32.60;16.80;;;4.30;72.60;;;;;;5081322;28;20576;-56
2022/03/13 01:51:05;;;;;;;30.60;17.02;;;4.20;73.50;;;;;;5080004;28;20459;-55
2022/03/13 01:53:32;;;;;;;31.85;17.42;;;4.20;73.80;;;;;;5078965;28;20402;-55
2022/03/13 01:55:58;;;;;;;29.40;16.67;;;4.10;73.80;;;;;;5080440;28;20394;-56
2022/03/13 01:58:25;;;;;;;33.35;17.38;;;4.00;74.60;;;;;;5079410;28;20380;-56
2022/03/13 02:00:50;;;;;;;32.85;17.23;;;4.00;75.00;;;;;;5078124;28;20371;-56
2022/03/13 02:03:16;;;;;;;34.43;17.87;;;3.90;75.40;;;;;;5075973;28;20411;-56
2022/03/13 02:05:43;;;;;;;31.48;18.05;;;3.80;76.50;;;;;;5079277;28;20386;-56
2022/03/13 02:08:20;;;;;;;32.07;17.80;;;3.70;77.90;;;;;;5080504;28;20384;-56
2022/03/13 02:10:46;;;;;;;34.80;18.48;;;3.90;80.30;;;;;;5078896;28;20742;-56
2022/03/13 02:13:16;;;;;;;34.55;18.70;;;4.80;82.30;;;;;;5078699;28;20508;-56
2022/03/13 02:15:41;;;;;;;30.40;17.75;;;3.40;81.40;;;;;;5079373;28;20404;-57
2022/03/13 02:18:07;;;;;;;35.25;18.85;;;3.30;82.00;;;;;;5079739;28;20876;-56
2022/03/13 02:20:43;;;;;;;36.97;19.88;;;3.40;82.70;;;;;;5078877;28;20400;-55
2022/03/13 02:23:20;;;;;;;33.95;19.23;;;3.30;85.70;;;;;;5078625;28;20410;-56
2022/03/13 02:25:50;;;;;;;33.17;18.17;;;3.10;89.70;;;;;;5061446;28;21077;-56
2022/03/13 02:28:20;;;;;;;35.97;19.38;;;3.10;90.50;;;;;;5085723;28;20378;-56
2022/03/13 02:30:46;;;;;;;32.10;18.55;;;3.10;90.40;;;;;;5078913;28;20372;-56
2022/03/13 02:33:12;;;;;;;33.38;17.80;;;3.00;90.20;;;;;;5078563;28;20389;-56
2022/03/13 02:35:38;;;;;;;31.95;16.95;;;2.90;89.70;;;;;;5077508;28;20374;-57
2022/03/13 02:38:05;;;;;;;33.20;19.25;;;2.80;89.00;;;;;;5078766;28;20390;-56
2022/03/13 02:40:32;;;;;;;40.70;19.80;;;2.80;89.60;;;;;;5078517;28;20444;-56
2022/03/13 02:42:58;;;;;;;35.42;18.90;;;2.50;91.10;;;;;;5076976;28;20502;-56
2022/03/13 02:45:30;;;;;;;33.10;19.23;;;3.20;92.70;;;;;;5079613;28;20878;-56
2022/03/13 02:47:56;;;;;;;33.35;20.40;;;2.70;93.50;;;;;;5079336;28;20392;-57
2022/03/13 02:50:22;;;;;;;34.03;19.00;;;2.80;93.60;;;;;;5078467;28;20446;-56
2022/03/13 02:52:48;;;;;;;35.07;19.27;;;4.00;94.20;;;;;;5078075;28;20378;-56
2022/03/13 02:55:14;;;;;;;32.75;19.30;;;2.80;94.10;;;;;;5080267;28;20386;-56
2022/03/13 02:57:40;;;;;;;35.97;19.40;;;2.70;94.00;;;;;;5077841;28;20386;-57
2022/03/13 03:00:08;;;;;;;37.40;19.67;;;2.70;93.90;;;;;;5078386;28;20393;-56
2022/03/13 03:02:34;;;;;;;36.70;19.98;;;2.60;93.40;;;;;;5080238;28;20434;-56
2022/03/13 03:05:06;;;;;;;40.25;20.52;;;2.50;93.20;;;;;;5079284;28;20382;-56
2022/03/13 03:07:32;;;;;;;36.40;19.25;;;2.30;93.50;;;;;;5080007;28;20384;-56
2022/03/13 03:09:58;;;;;;;34.00;20.23;;;2.20;94.40;;;;;;5077218;28;20562;-56
2022/03/13 03:12:24;;;;;;;33.97;19.10;;;2.00;95.20;;;;;;5079285;28;20863;-56
2022/03/13 03:14:50;;;;;;;40.08;21.70;;;2.00;96.10;;;;;;5078747;28;20395;-56
2022/03/13 03:17:16;;;;;;;34.67;18.70;;;3.40;97.70;;;;;;5077937;28;20411;-56
2022/03/13 03:19:42;;;;;;;33.50;18.77;;;2.10;97.60;;;;;;5078643;28;20417;-57
2022/03/13 03:22:08;;;;;;;32.03;18.02;;;2.10;98.10;;;;;;5077816;28;20407;-56
2022/03/13 03:24:34;;;;;;;35.00;19.25;;;2.20;98.40;;;;;;5083756;28;20900;-56
2022/03/13 03:27:00;;;;;;;33.67;18.40;;;2.30;98.00;;;;;;5081195;28;20411;-56
2022/03/13 03:29:27;;;;;;;34.13;18.67;;;2.40;97.70;;;;;;5083205;28;20390;-57
2022/03/13 03:31:54;;;;;;;34.75;18.55;;;2.40;97.00;;;;;;5082938;28;20390;-56
2022/03/13 03:34:22;;;;;;;32.50;17.98;;;4.50;97.90;;;;;;5063338;28;20418;-56
2022/03/13 03:36:53;;;;;;;36.80;19.07;;;2.30;97.30;;;;;;5082148;28;20374;-57
2022/03/13 03:39:21;;;;;;;30.20;17.08;;;2.30;97.60;;;;;;5083825;28;20844;-56
2022/03/13 03:41:49;;;;;;;32.92;17.35;;;2.20;97.30;;;;;;5081250;28;20383;-56
2022/03/13 03:44:15;;;;;;;30.70;16.50;;;2.40;96.90;;;;;;5081855;28;20382;-56
2022/03/13 03:46:42;;;;;;;30.48;16.67;;;2.40;96.00;;;;;;5082960;28;20801;-57
2022/03/13 03:49:08;;;;;;;30.20;16.63;;;1.70;95.10;;;;;;5082370;28;20388;-56
2022/03/13 03:51:34;;;;;;;32.72;16.05;;;2.50;94.90;;;;;;5081746;28;20383;-56
2022/03/13 03:54:01;;;;;;;30.33;16.67;;;2.40;94.90;;;;;;5082682;28;20437;-56
2022/03/13 03:56:26;;;;;;;29.30;16.23;;;2.40;95.10;;;;;;5083024;28;20431;-56
2022/03/13 03:58:52;;;;;;;32.73;17.53;;;2.40;95.50;;;;;;5081612;28;20384;-56
2022/03/13 04:01:18;;;;;;;30.40;16.73;;;2.40;95.70;;;;;;5080984;28;20376;-58
2022/03/13 04:03:44;;;;;;;32.22;16.95;;;2.50;95.80;;;;;;5082226;28;20539;-57
2022/03/13 04:06:10;;;;;;;32.13;17.20;;;2.40;95.70;;;;;;5082203;28;20805;-56
2022/03/13 04:08:36;;;;;;;30.80;16.20;;;2.40;95.80;;;;;;5081208;28;20473;-56
2022/03/13 04:11:02;;;;;;;34.03;16.73;;;2.50;95.80;;;;;;5064444;28;20366;-56
2022/03/13 04:13:36;;;;;;;31.10;16.70;;;4.60;96.40;;;;;;5081369;28;20411;-56
2022/03/13 04:16:02;;;;;;;33.58;16.90;;;2.50;94.90;;;;;;5082139;28;20375;-56
2022/03/13 04:18:28;;;;;;;31.85;16.70;;;2.60;95.30;;;;;;5084551;28;20498;-56
2022/03/13 04:20:54;;;;;;;31.13;16.20;;;2.60;95.60;;;;;;5081553;28;20411;-56
2022/03/13 04:23:19;;;;;;;31.90;16.23;;;2.60;95.80;;;;;;5082334;28;20403;-57
2022/03/13 04:25:45;;;;;;;30.35;16.98;;;2.60;95.90;;;;;;5082337;28;20388;-57
2022/03/13 04:28:11;;;;;;;28.20;16.02;;;2.70;95.70;;;;;;5063644;28;20401;-56
2022/03/13 04:30:39;;;;;;;32.13;16.55;;;2.50;95.80;;;;;;5083520;28;20707;-56
2022/03/13 04:33:05;;;;;;;29.67;15.80;;;2.50;96.00;;;;;;5079983;28;20477;-56
2022/03/13 04:35:30;;;;;;;29.67;16.30;;;2.50;96.40;;;;;;5080674;28;20388;-60
2022/03/13 04:37:56;;;;;;;31.38;16.90;;;2.50;96.00;;;;;;5080376;28;20734;-56
2022/03/13 04:40:22;;;;;;;30.57;16.30;;;2.60;95.80;;;;;;5082600;28;20371;-57
2022/03/13 04:42:47;;;;;;;29.07;16.00;;;2.60;95.60;;;;;;5079037;28;20800;-56
2022/03/13 04:45:13;;;;;;;27.35;15.68;;;2.60;95.50;;;;;;5081815;28;20394;-56
2022/03/13 04:47:39;;;;;;;29.80;15.83;;;2.60;95.70;;;;;;5065836;28;20906;-56
2022/03/13 04:50:05;;;;;;;32.87;16.40;;;3.70;96.30;;;;;;5077034;28;20399;-57
2022/03/13 04:52:31;;;;;;;29.27;16.30;;;2.50;96.00;;;;;;5081713;28;20505;-56
2022/03/13 04:54:56;;;;;;;33.17;17.57;;;2.60;96.20;;;;;;5080540;28;20950;-56
2022/03/13 04:57:22;;;;;;;27.63;15.40;;;2.50;96.20;;;;;;5080115;28;20383;-56
2022/03/13 04:59:48;;;;;;;32.37;16.13;;;2.60;96.50;;;;;;5081945;28;20378;-56
2022/03/13 05:02:13;;;;;;;34.43;17.10;;;2.50;96.70;;;;;;5081145;28;20774;-56
2022/03/13 05:04:43;;;;;;;28.73;16.48;;;2.40;97.10;;;;;;5080321;28;20886;-56
2022/03/13 05:07:09;;;;;;;32.83;16.85;;;2.40;97.10;;;;;;5053904;28;20428;-56
2022/03/13 05:09:35;;;;;;;33.20;16.08;;;2.50;96.90;;;;;;5082432;28;20423;-56
2022/03/13 05:12:04;;;;;;;30.80;16.07;;;2.50;96.90;;;;;;5082175;28;20391;-56
2022/03/13 05:14:30;;;;;;;33.65;17.33;;;2.40;96.90;;;;;;5080158;28;20388;-56
2022/03/13 05:16:56;;;;;;;30.92;16.95;;;2.40;97.00;;;;;;5081576;28;20468;-56
2022/03/13 05:19:21;;;;;;;33.22;17.30;;;2.30;97.30;;;;;;5082161;28;20470;-56
2022/03/13 05:21:47;;;;;;;33.17;16.40;;;2.30;97.40;;;;;;5081530;28;20693;-57
2022/03/13 05:24:13;;;;;;;33.73;16.80;;;2.40;97.40;;;;;;5081283;28;20381;-56
2022/03/13 05:26:39;;;;;;;33.50;16.80;;;4.10;98.30;;;;;;5081177;28;20376;-56
2022/03/13 05:29:04;;;;;;;34.63;17.75;;;2.30;97.70;;;;;;5078676;28;20601;-56
2022/03/13 05:31:31;;;;;;;29.80;16.90;;;3.80;99.00;;;;;;5079989;28;20877;-56
2022/03/13 05:33:57;;;;;;;34.67;17.65;;;2.20;98.30;;;;;;5082458;28;20389;-57
2022/03/13 05:36:22;;;;;;;31.80;16.70;;;2.30;98.70;;;;;;5081930;28;20368;-56
2022/03/13 05:38:48;;;;;;;31.40;16.60;;;3.70;99.70;;;;;;5078505;28;20380;-57
2022/03/13 05:41:14;;;;;;;35.83;18.60;;;2.20;99.00;;;;;;5080612;28;20920;-58
2022/03/13 05:43:42;;;;;;;33.15;18.27;;;2.20;99.30;;;;;;5080876;28;20400;-57
2022/03/13 05:46:08;;;;;;;33.30;17.60;;;3.30;99.70;;;;;;5078823;28;20384;-56
2022/03/13 05:48:34;;;;;;;33.00;17.48;;;4.20;99.90;;;;;;5078951;28;20395;-57
2022/03/13 05:50:59;;;;;;;36.53;17.60;;;2.20;99.80;;;;;;5078373;28;20388;-56
2022/03/13 05:53:25;;;;;;;37.00;18.90;;;2.10;99.90;;;;;;5079111;28;20378;-56
2022/03/13 05:55:51;;;;;;;30.27;17.13;;;2.10;99.90;;;;;;5078028;28;20745;-57
2022/03/13 05:58:18;;;;;;;35.90;17.80;;;2.10;99.90;;;;;;5080213;28;20866;-56
2022/03/13 06:01:00;;;;;;;30.80;17.02;;;2.10;99.90;;;;;;5080541;28;20381;-57
2022/03/13 06:03:26;;;;;;;32.65;16.98;;;2.20;99.90;;;;;;5062762;28;20413;-56
2022/03/13 06:05:52;;;;;;;33.60;18.08;;;2.30;99.90;;;;;;5062894;28;20447;-57
2022/03/13 06:08:18;;;;;;;33.70;17.87;;;2.50;99.90;;;;;;5081600;28;20463;-57
2022/03/13 06:10:43;;;;;;;34.33;18.77;;;2.80;99.90;;;;;;5078521;28;20383;-57
2022/03/13 06:13:09;;;;;;;34.92;18.10;;;4.60;99.90;;;;;;5080374;28;20874;-57
2022/03/13 06:15:35;;;;;;;35.22;17.98;;;3.70;98.50;;;;;;5062933;28;20393;-57
2022/03/13 06:18:02;;;;;;;35.40;18.13;;;4.20;96.90;;;;;;5079051;28;20405;-57
2022/03/13 06:20:28;;;;;;;33.60;17.20;;;4.60;95.10;;;;;;5078243;28;20440;-55
2022/03/13 06:22:53;;;;;;;33.00;18.03;;;5.10;93.60;;;;;;5079608;28;20437;-55
2022/03/13 06:25:19;;;;;;;30.13;17.23;;;5.50;92.30;;;;;;5077801;28;20850;-54
2022/03/13 06:27:47;;;;;;;32.63;17.60;;;5.80;91.70;;;;;;5078994;28;20501;-55
2022/03/13 06:30:14;;;;;;;31.15;17.58;;;6.50;90.00;;;;;;5078919;28;20380;-56
2022/03/13 06:32:41;;;;;;;35.22;18.65;;;7.10;86.00;;;;;;5079210;28;20848;-55
2022/03/13 06:35:08;;;;;;;33.30;17.52;;;7.70;82.10;;;;;;5078946;28;20392;-56
2022/03/13 06:37:34;;;;;;;31.77;17.95;;;8.00;78.70;;;;;;5077965;28;20915;-55
2022/03/13 06:40:00;;;;;;;26.83;17.37;;;8.10;78.00;;;;;;5079417;28;20381;-55
2022/03/13 06:42:25;;;;;;;33.10;18.90;;;8.50;75.80;;;;;;5079279;28;20483;-55
2022/03/13 06:44:51;;;;;;;30.27;18.30;;;9.00;72.60;;;;;;5078107;28;20386;-55
2022/03/13 06:47:17;;;;;;;28.75;17.13;;;8.80;71.40;;;;;;5079941;28;20401;-56
2022/03/13 06:49:43;;;;;;;30.30;16.50;;;9.10;70.20;;;;;;5060310;28;20402;-56
2022/03/13 06:52:09;;;;;;;25.57;15.90;;;9.20;67.20;;;;;;5078975;28;20394;-56
2022/03/13 06:54:35;;;;;;;25.95;14.85;;;9.30;64.80;;;;;;5080185;28;20435;-56
2022/03/13 06:57:00;;;;;;;24.53;13.90;;;9.40;63.40;;;;;;5078730;28;20408;-56
2022/03/13 06:59:26;;;;;;;22.35;13.18;;;9.70;60.80;;;;;;5079052;28;20372;-56
2022/03/13 07:01:51;;;;;;;22.77;12.17;;;10.00;58.00;;;;;;5077613;28;20382;-57
2022/03/13 07:04:17;;;;;;;19.70;12.27;;;10.50;57.10;;;;;;5072271;28;20804;-53
2022/03/13 07:06:43;;;;;;;20.17;10.90;;;10.90;56.80;;;;;;5078777;28;20403;-55
2022/03/13 07:09:09;;;;;;;19.20;10.93;;;11.70;58.50;;;;;;5077237;28;20450;-52
2022/03/13 07:11:34;;;;;;;19.77;11.40;;;11.90;53.30;;;;;;5073803;28;20445;-54
2022/03/13 07:14:07;;;;;;;18.50;11.40;;;11.60;53.20;;;;;;5079018;28;20402;-52
2022/03/13 07:16:32;;;;;;;18.60;10.77;;;11.60;53.00;;;;;;5073129;28;20405;-52
2022/03/13 07:18:58;;;;;;;21.17;11.05;;;11.40;49.90;;;;;;5077597;28;20480;-52
2022/03/13 07:21:24;;;;;;;18.23;10.50;;;11.10;52.90;;;;;;5069916;28;20501;-53
2022/03/13 07:23:49;;;;;;;19.20;10.60;;;12.00;54.30;;;;;;5075451;28;20489;-53
2022/03/13 07:26:15;;;;;;;19.97;11.87;;;12.40;51.40;;;;;;5068631;28;20415;-53
2022/03/13 07:28:41;;;;;;;18.20;11.45;;;12.90;49.80;;;;;;5080728;28;20868;-53
2022/03/13 07:31:06;;;;;;;21.02;11.88;;;13.50;50.90;;;;;;5068256;28;20387;-53
2022/03/13 07:33:32;;;;;;;21.50;12.20;;;13.70;48.00;;;;;;5075733;28;20397;-53
2022/03/13 07:35:58;;;;;;;21.25;15.07;;;14.30;48.80;;;;;;5076657;28;20881;-54
2022/03/13 07:38:23;;;;;;;23.60;17.42;;;15.00;45.80;;;;;;5078414;28;20741;-54
2022/03/13 07:40:50;;;;;;;25.40;18.17;;;15.20;44.00;;;;;;5074926;28;20469;-56
2022/03/13 07:43:16;;;;;;;22.75;18.42;;;15.40;43.90;;;;;;5084228;28;20418;-55
2022/03/13 07:45:42;;;;;;;22.98;14.98;;;15.80;44.00;;;;;;5083117;28;20782;-55
2022/03/13 07:48:08;;;;;;;21.50;14.10;;;15.60;42.20;;;;;;5082613;28;20401;-54
2022/03/13 07:50:34;;;;;;;24.30;18.00;;;15.20;43.20;;;;;;5084789;28;20417;-55
2022/03/13 07:52:59;;;;;;;26.52;18.48;;;14.80;42.90;;;;;;5052500;28;20418;-54
2022/03/13 07:55:25;;;;;;;25.33;18.92;;;14.80;43.30;;;;;;5078064;28;20408;-54
2022/03/13 07:57:52;;;;;;;25.45;19.10;;;14.60;44.00;;;;;;5072920;28;20396;-54
2022/03/13 08:00:18;;;;;;;24.65;18.05;;;15.00;42.30;;;;;;5075005;28;20423;-54
2022/03/13 08:02:46;;;;;;;23.95;16.85;;;15.70;41.70;;;;;;5076690;28;20415;-54
2022/03/13 08:05:14;;;;;;;23.02;15.05;;;16.50;41.30;;;;;;5057224;28;20420;-56
2022/03/13 08:07:39;;;;;;;23.92;14.88;;;17.40;40.20;;;;;;5080024;28;20430;-55
2022/03/13 08:10:05;;;;;;;27.97;13.83;;;17.70;38.70;;;;;;5070261;28;20959;-56
2022/03/13 08:12:31;;;;;;;25.25;15.20;;;17.90;39.40;;;;;;5083295;28;21052;-54
2022/03/13 08:14:57;;;;;;;23.23;14.67;;;18.20;37.80;;;;;;5078302;28;20522;-55
2022/03/13 08:17:22;;;;;;;24.53;15.67;;;18.40;37.30;;;;;;5086387;28;20438;-58
2022/03/13 08:19:48;;;;;;;21.73;14.70;;;18.50;36.10;;;;;;5086646;28;20425;-58
2022/03/13 08:22:16;;;;;;;22.50;15.15;;;17.70;36.10;;;;;;5083982;28;20418;-57
2022/03/13 08:24:41;;;;;;;22.27;14.30;;;17.90;36.30;;;;;;5088659;28;20401;-57
2022/03/13 08:27:08;;;;;;;24.17;14.67;;;18.50;36.10;;;;;;5082720;28;21057;-58
2022/03/13 08:29:33;;;;;;;24.75;14.60;;;18.00;35.10;;;;;;5090056;28;20413;-57
2022/03/13 08:31:59;;;;;;;21.13;13.93;;;17.90;36.30;;;;;;5087020;28;20404;-58
2022/03/13 08:34:28;;;;;;;22.85;16.05;;;18.70;35.60;;;;;;5087331;28;20437;-58
2022/03/13 08:36:53;;;;;;;23.02;18.20;;;19.00;35.20;;;;;;5089023;28;20428;-58
2022/03/13 08:39:19;;;;;;;24.55;16.25;;;19.20;35.20;;;;;;5086652;28;20430;-58
2022/03/13 08:41:45;;;;;;;21.83;14.37;;;19.60;43.60;;;;;;5065211;28;20746;-58
2022/03/13 08:44:11;;;;;;;23.97;15.40;;;19.70;41.50;;;;;;5087746;28;21064;-58
2022/03/13 08:46:38;;;;;;;26.05;15.88;;;20.10;40.50;;;;;;5074301;28;20916;-58
2022/03/13 08:49:04;;;;;;;23.80;15.80;;;19.90;35.20;;;;;;5071175;28;20784;-57
2022/03/13 08:51:30;;;;;;;22.40;15.63;;;19.60;34.70;;;;;;5071192;28;20877;-58
2022/03/13 08:53:56;;;;;;;23.67;15.68;;;20.10;34.10;;;;;;5052415;28;20402;-58
2022/03/13 08:56:22;;;;;;;23.60;17.80;;;20.30;34.60;;;;;;5066731;28;20400;-58
2022/03/13 08:58:48;;;;;;;24.80;16.02;;;20.40;34.40;;;;;;5076226;28;20465;-59
2022/03/13 09:01:14;;;;;;;26.45;16.95;;;20.80;34.00;;;;;;5075756;28;20396;-57
2022/03/13 09:03:41;;;;;;;24.42;17.05;;;;;;;;;;5075928;28;20450;-58
2022/03/13 09:06:07;;;;;;;30.10;19.42;;;21.60;33.00;;;;;;5086636;28;20456;-58
2022/03/13 09:08:32;;;;;;;26.57;17.30;;;22.20;33.10;;;;;;5077428;28;20937;-58
2022/03/13 09:10:58;;;;;;;27.65;18.38;;;22.00;32.40;;;;;;5071704;28;20405;-58
2022/03/13 09:13:24;;;;;;;23.05;16.95;;;22.10;33.00;;;;;;5079617;28;20402;-58
2022/03/13 09:15:50;;;;;;;25.38;17.20;;;22.60;32.10;;;;;;5082647;28;20447;-58
2022/03/13 09:18:16;;;;;;;26.80;17.60;;;22.40;32.20;;;;;;5088450;28;20406;-58
2022/03/13 09:20:42;;;;;;;30.73;17.38;;;21.90;32.80;;;;;;5088021;28;20387;-58
2022/03/13 09:23:07;;;;;;;23.80;17.27;;;21.90;32.40;;;;;;5086075;28;20405;-58
2022/03/13 09:25:34;;;;;;;28.40;18.37;;;23.00;32.10;;;;;;5080249;28;20978;-58
2022/03/13 09:28:03;;;;;;;27.17;17.00;;;23.40;31.30;;;;;;5069774;28;20427;-57
2022/03/13 09:30:29;;;;;;;25.05;18.85;;;24.00;30.80;;;;;;5074359;28;20398;-58
2022/03/13 09:32:55;;;;;;;27.63;17.63;;;24.00;30.20;;;;;;5084976;28;20519;-58
2022/03/13 09:35:21;;;;;;;24.73;17.15;;;23.90;29.90;;;;;;5086861;28;20747;-58
2022/03/13 09:37:46;;;;;;;24.17;17.38;;;23.90;30.00;;;;;;5082289;28;20394;-58
2022/03/13 09:40:14;;;;;;;24.45;17.35;;;23.70;30.60;;;;;;5082245;28;20402;-58
2022/03/13 09:42:41;;;;;;;30.08;17.25;;;23.30;30.80;;;;;;5087871;28;20433;-58
2022/03/13 09:45:07;;;;;;;25.80;18.58;;;24.10;30.50;;;;;;5079203;28;20427;-58
2022/03/13 09:47:33;;;;;;;27.40;19.77;;;24.70;30.00;;;;;;5086158;28;20389;-59
2022/03/13 09:49:58;;;;;;;28.75;18.33;;;25.00;29.40;;;;;;5074099;28;20400;-58
2022/03/13 09:52:24;;;;;;;28.88;19.85;;;25.00;29.40;;;;;;5070936;28;20495;-59
2022/03/13 09:54:50;;;;;;;28.08;18.42;;;24.60;28.60;;;;;;5070247;28;20881;-59
2022/03/13 09:57:17;;;;;;;27.10;18.83;;;25.10;29.40;;;;;;5083318;28;20378;-59
2022/03/13 09:59:45;;;;;;;28.65;18.80;;;24.00;29.70;;;;;;5080511;28;20587;-59
2022/03/13 10:02:11;;;;;;;28.63;19.23;;;23.60;30.00;;;;;;5078424;28;20513;-59
2022/03/13 10:04:37;;;;;;;28.80;19.57;;;23.80;29.90;;;;;;5063904;28;20438;-59
2022/03/13 10:07:13;;;;;;;28.33;19.87;;;23.80;30.20;;;;;;5077245;28;20446;-58
2022/03/13 10:09:40;;;;;;;30.45;21.10;;;24.30;29.70;;;;;;5069527;28;20873;-58
2022/03/13 10:12:16;;;;;;;30.58;23.05;;;23.30;30.10;;;;;;5086641;28;20382;-59
2022/03/13 10:15:03;;;;;;;28.17;20.40;;;22.20;31.10;;;;;;5078283;28;20477;-59
2022/03/13 10:17:31;;;;;;;27.70;18.60;;;22.50;30.70;;;;;;5069973;28;20865;-58
2022/03/13 10:20:25;;;;;;;27.00;18.65;;;22.50;31.10;;;;;;5072340;28;20422;-60
2022/03/13 10:22:59;;;;;;;30.15;20.48;;;23.00;31.30;;;;;;5075276;28;20409;-59
2022/03/13 10:25:29;;;;;;;30.30;20.90;;;24.10;30.10;;;;;;5080610;28;20430;-57
2022/03/13 10:28:18;;;;;;;26.88;18.67;;;24.90;30.00;;;;;;5073070;28;20419;-57
2022/03/13 10:30:49;;;;;;;28.63;19.23;;;24.90;29.50;;;;;;5074774;28;20378;-60
2022/03/13 10:33:15;;;;;;;28.88;18.48;;;24.30;29.60;;;;;;5074729;28;20995;-58
2022/03/13 10:35:41;;;;;;;30.42;20.40;;;24.80;29.50;;;;;;5077027;28;20370;-57
2022/03/13 10:38:22;;;;;;;30.17;20.38;;;25.20;29.50;;;;;;5073912;28;20379;-57
2022/03/13 10:40:57;;;;;;;28.48;20.30;;;25.70;29.00;;;;;;5073055;28;20407;-59
2022/03/13 10:43:26;;;;;;;29.00;19.98;;;26.10;28.30;;;;;;5073724;28;20411;-58
2022/03/13 10:45:54;;;;;;;29.97;20.73;;;25.90;28.50;;;;;;5084703;28;20531;-58
2022/03/13 10:48:21;;;;;;;31.77;20.58;;;25.90;28.10;;;;;;5074406;28;20413;-58
2022/03/13 10:50:50;;;;;;;28.95;20.23;;;25.90;28.20;;;;;;5078955;28;20395;-58
2022/03/13 10:53:18;;;;;;;29.08;19.60;;;25.70;28.60;;;;;;5057244;28;20871;-58
2022/03/13 10:55:58;;;;;;;30.48;20.98;;;25.50;28.70;;;;;;5074632;28;20380;-58
2022/03/13 10:58:29;;;;;;;32.78;20.70;;;24.80;28.60;;;;;;5077770;28;20429;-58
2022/03/13 11:01:09;;;;;;;30.98;19.35;;;24.90;29.20;;;;;;5053692;28;20398;-57
2022/03/13 11:03:36;;;;;;;31.95;22.10;;;24.90;29.30;;;;;;5076270;28;20403;-58
2022/03/13 11:06:03;;;;;;;33.17;22.30;;;24.60;29.20;;;;;;5081222;28;20388;-58
2022/03/13 11:08:29;;;;;;;28.65;20.35;;;24.80;29.20;;;;;;5085506;28;20386;-58
2022/03/13 11:10:58;;;;;;;32.95;20.55;;;25.30;28.60;;;;;;5075038;28;20454;-58
2022/03/13 11:13:27;;;;;;;31.55;20.13;;;25.00;28.70;;;;;;5083586;28;20873;-58
2022/03/13 11:15:57;;;;;;;30.70;21.00;;;24.60;28.80;;;;;;5083194;28;20377;-58
2022/03/13 11:18:32;;;;;;;32.67;23.23;;;24.20;29.40;;;;;;5076415;28;20413;-57
2022/03/13 11:20:58;;;;;;;31.08;22.90;;;23.90;29.60;;;;;;5088802;28;20427;-58
2022/03/13 11:23:23;;;;;;;31.73;23.17;;;23.70;29.80;;;;;;5072013;28;20756;-59
2022/03/13 11:25:55;;;;;;;37.05;24.75;;;23.40;29.80;;;;;;5066116;28;20390;-58
2022/03/13 11:28:22;;;;;;;33.28;23.60;;;23.50;29.90;;;;;;5076524;28;20402;-58
2022/03/13 11:30:49;;;;;;;34.92;24.08;;;24.00;29.70;;;;;;5075552;28;20386;-59
2022/03/13 11:33:44;;;;;;;32.10;23.57;;;24.20;29.60;;;;;;5073897;28;20374;-58
2022/03/13 11:36:32;;;;;;;33.13;23.40;;;24.00;29.50;;;;;;5078856;28;20406;-60
2022/03/13 11:39:04;;;;;;;34.22;23.67;;;23.30;30.00;;;;;;5079061;28;20383;-60
2022/03/13 11:41:41;;;;;;;31.20;22.90;;;22.20;30.30;;;;;;5081609;28;20386;-59
2022/03/13 11:44:19;;;;;;;31.67;22.25;;;21.50;30.70;;;;;;5068851;28;20881;-56
2022/03/13 11:46:50;;;;;;;35.20;23.45;;;20.80;31.90;;;;;;5056864;28;20413;-53
2022/03/13 11:49:31;;;;;;;31.77;21.73;;;20.20;32.50;;;;;;5078257;28;20397;-53
2022/03/13 11:52:12;;;;;;;35.30;23.35;;;19.50;33.10;;;;;;5085813;28;20828;-54
2022/03/13 11:54:49;;;;;;;31.58;21.80;;;19.40;33.50;;;;;;5089201;28;20388;-53
2022/03/13 11:57:17;;;;;;;31.02;20.92;;;19.60;34.50;;;;;;5084801;28;20413;-54
2022/03/13 11:59:49;;;;;;;31.40;21.75;;;19.60;33.20;;;;;;5085831;28;20417;-53
2022/03/13 12:02:42;;;;;;;33.47;21.77;;;19.00;33.40;;;;;;5088113;28;20383;-53
2022/03/13 12:05:26;;;;;;;34.60;23.13;;;18.60;33.60;;;;;;5086541;28;20513;-52
2022/03/13 12:07:53;;;;;;;34.92;21.80;;;18.60;34.20;;;;;;5089971;28;20944;-58
2022/03/13 12:10:41;;;;;;;34.88;22.80;;;18.80;34.40;;;;;;5084685;28;20397;-52
2022/03/13 12:13:09;;;;;;;35.38;22.73;;;19.40;35.20;;;;;;5083641;28;20436;-53
2022/03/13 12:15:39;;;;;;;32.85;22.90;;;18.90;34.10;;;;;;5088545;28;20394;-53
2022/03/13 12:18:25;;;;;;;32.47;21.07;;;19.00;34.90;;;;;;5088555;28;20463;-53
2022/03/13 12:20:52;;;;;;;30.42;22.13;;;19.00;34.00;;;;;;5082840;28;20419;-53
2022/03/13 12:23:33;;;;;;;34.00;22.40;;;19.00;35.00;;;;;;5085556;28;20968;-53
2022/03/13 12:26:26;;;;;;;34.75;21.98;;;18.70;34.10;;;;;;5087104;28;20956;-54
2022/03/13 12:28:55;;;;;;;32.15;22.70;;;18.60;34.90;;;;;;5086946;28;20394;-54
2022/03/13 12:31:21;;;;;;;32.97;22.57;;;18.70;34.10;;;;;;5080827;28;20513;-54
2022/03/13 12:33:50;;;;;;;32.25;22.25;;;18.60;34.90;;;;;;5083777;28;20485;-54
2022/03/13 12:36:17;;;;;;;34.20;22.70;;;18.80;33.90;;;;;;5082944;28;20521;-54